Time;durP1;ratioP1;P1;durP2;ratioP2;P2;SDS_P1;SDS_P2;PMS_P1;PMS_P2;Temp;Humidity;BMP_temperature;BMP_pressure;BME280_temperature;BME280_humidity;BME280_pressure;Samples;Min_cycle;Max_cycle;Signal;HPM_P1;HPM_P2
2024/01/02 00:01:23;;;;;;;10.00;7.40;;;;;;;4.12;83.02;97908.69;107750;1252;60444;-39
2024/01/02 00:03:50;;;;;;;7.90;5.20;;;;;;;4.06;82.30;97911.33;107707;1253;60026;-39
2024/01/02 00:06:18;;;;;;;4.30;3.50;;;;;;;4.04;81.74;97908.37;107634;1253;72558;-39
2024/01/02 00:08:46;;;;;;;3.10;2.10;;;;;;;4.07;81.22;97908.42;107612;1255;67899;-39
2024/01/02 00:11:14;;;;;;;2.80;2.00;;;;;;;4.05;80.55;97914.06;107649;1253;71445;-39
2024/01/02 00:13:41;;;;;;;2.80;1.70;;;;;;;3.97;80.49;97909.84;107667;1256;60464;-39
2024/01/02 00:16:09;;;;;;;2.30;1.90;;;;;;;3.88;81.04;97910.50;107673;1254;60387;-39
2024/01/02 00:18:36;;;;;;;3.20;1.90;;;;;;;3.88;80.68;97910.05;107620;1256;73788;-39
2024/01/02 00:21:04;;;;;;;3.20;2.20;;;;;;;3.90;80.45;97909.24;107649;1257;66697;-39
2024/01/02 00:23:31;;;;;;;2.80;1.70;;;;;;;3.87;80.56;97911.08;107659;1257;72989;-39
2024/01/02 00:25:59;;;;;;;2.60;1.70;;;;;;;3.82;80.51;97904.79;107707;1256;60454;-39
2024/01/02 00:28:26;;;;;;;2.80;1.60;;;;;;;3.84;80.57;97908.42;107612;1256;60870;-39
2024/01/02 00:30:54;;;;;;;2.20;1.70;;;;;;;3.87;80.14;97904.88;107734;1256;72639;-38
2024/01/02 00:33:22;;;;;;;2.90;1.80;;;;;;;3.83;80.01;97909.17;107588;1251;66273;-39
2024/01/02 00:35:49;;;;;;;2.90;1.50;;;;;;;3.78;79.86;97911.58;107557;1255;71458;-39
2024/01/02 00:38:18;;;;;;;2.40;1.40;;;;;;;3.76;80.08;97906.86;107510;1254;60435;-39
2024/01/02 00:40:46;;;;;;;2.00;1.60;;;;;;;3.78;80.17;97900.85;107435;1257;60356;-41
2024/01/02 00:43:14;;;;;;;3.30;1.70;;;;;;;3.77;80.33;97908.95;107402;1254;73865;-39
2024/01/02 00:45:41;;;;;;;2.50;1.60;;;;;;;3.73;80.26;97902.41;107577;1254;66317;-38
2024/01/02 00:48:09;;;;;;;2.10;1.40;;;;;;;3.68;80.26;97897.95;107521;1255;71163;-38
2024/01/02 00:50:37;;;;;;;2.30;1.50;;;;;;;3.70;80.01;97895.80;107538;1254;61032;-38
2024/01/02 00:53:05;;;;;;;2.50;1.70;;;;;;;3.72;79.96;97898.35;107483;1258;59264;-38
2024/01/02 00:55:33;;;;;;;3.20;2.00;;;;;;;3.68;79.56;97898.71;107569;1257;72561;-38
2024/01/02 00:58:00;;;;;;;2.40;1.60;;;;;;;3.63;79.69;97897.45;107592;1255;68308;-38
2024/01/02 01:00:28;;;;;;;2.80;1.40;;;;;;;3.64;79.60;97895.20;107641;1253;72701;-38
2024/01/02 01:02:55;;;;;;;2.30;1.50;;;;;;;3.68;79.57;97894.96;107636;1254;60402;-38
2024/01/02 01:05:23;;;;;;;3.60;1.50;;;;;;;3.66;79.22;97888.10;107638;1254;60322;-38
2024/01/02 01:07:51;;;;;;;3.30;1.70;;;;;;;3.62;79.23;97880.74;107603;1254;73852;-38
2024/01/02 01:10:18;;;;;;;2.60;1.80;;;;;;;3.58;79.36;97871.63;107697;1257;67527;-39
2024/01/02 01:12:46;;;;;;;4.10;1.70;;;;;;;3.62;79.38;97881.27;107580;1257;71919;-38
2024/01/02 01:15:13;;;;;;;2.50;1.60;;;;;;;3.63;79.21;97876.85;107641;1254;60521;-38
2024/01/02 01:17:41;;;;;;;2.40;1.70;;;;;;;3.60;79.50;97880.45;107610;1254;60312;-38
2024/01/02 01:20:09;;;;;;;2.70;1.50;;;;;;;3.55;79.76;97876.08;107629;1256;73848;-39
2024/01/02 01:22:37;;;;;;;2.40;1.70;;;;;;;3.56;79.77;97876.02;107658;1254;65284;-38
2024/01/02 01:25:05;;;;;;;1.70;1.10;;;;;;;3.61;80.00;97874.98;107490;1254;71693;-38
2024/01/02 01:27:33;;;;;;;1.50;1.20;;;;;;;3.58;80.25;97868.33;107677;1254;60483;-38
2024/01/02 01:30:00;;;;;;;3.60;1.30;;;;;;;3.52;80.26;97867.04;107666;1256;60294;-39
2024/01/02 01:32:28;;;;;;;1.30;1.00;;;;;;;3.48;80.46;97864.73;107657;1251;73804;-38
2024/01/02 01:34:56;;;;;;;1.70;1.20;;;;;;;3.51;80.23;97867.33;107532;1254;66376;-39
2024/01/02 01:37:24;;;;;;;1.50;1.10;;;;;;;3.49;79.71;97859.57;107493;1255;72565;-38
2024/01/02 01:39:51;;;;;;;1.50;1.20;;;;;;;3.43;79.80;97863.24;107649;1256;60401;-38
2024/01/02 01:42:19;;;;;;;1.80;1.20;;;;;;;3.38;79.97;97855.79;107652;1251;60446;-38
2024/01/02 01:44:46;;;;;;;1.50;1.00;;;;;;;3.39;79.90;97859.55;107512;1254;72630;-38
2024/01/02 01:47:14;;;;;;;1.70;1.00;;;;;;;3.42;79.59;97851.13;107628;1254;66882;-38
2024/01/02 01:49:41;;;;;;;1.80;1.10;;;;;;;3.40;79.58;97851.69;107559;1254;71392;-39
2024/01/02 01:52:09;;;;;;;1.70;1.00;;;;;;;3.37;79.60;97853.38;107609;1254;60470;-39
2024/01/02 01:54:36;;;;;;;2.30;1.20;;;;;;;3.34;79.46;97853.24;107636;1256;60317;-39
2024/01/02 01:57:04;;;;;;;2.20;1.30;;;;;;;3.36;79.26;97849.84;107500;1256;72946;-39
2024/01/02 01:59:32;;;;;;;1.90;1.10;;;;;;;3.37;78.99;97855.85;107501;1252;68047;-39
2024/01/02 02:02:00;;;;;;;2.40;1.20;;;;;;;3.34;78.88;97855.02;107473;1254;72678;-39
2024/01/02 02:04:28;;;;;;;2.30;1.50;;;;;;;3.29;78.71;97854.27;105264;1254;1003100;-39
2024/01/02 02:06:55;;;;;;;1.10;1.00;;;;;;;3.32;78.71;97852.42;107505;1254;60393;-39
2024/01/02 02:09:23;;;;;;;2.00;0.90;;;;;;;3.34;78.19;97855.70;107517;1252;73799;-39
2024/01/02 02:11:50;;;;;;;0.90;0.80;;;;;;;3.33;78.34;97856.52;106877;1257;1002847;-39
2024/01/02 02:14:18;;;;;;;4.80;1.10;;;;;;;3.28;78.56;97852.27;107639;1253;72814;-39
2024/01/02 02:16:45;;;;;;;1.40;0.90;;;;;;;3.25;78.46;97853.42;107615;1254;60883;-39
2024/01/02 02:19:13;;;;;;;1.50;1.10;;;;;;;3.29;78.66;97854.43;107548;1257;135073;-39
2024/01/02 02:23:27;;;;;;;3.90;1.10;;;;;;;3.29;78.52;97852.06;104387;1295;600632;-40
2024/01/02 02:25:55;;;;;;;2.60;1.00;;;;;;;3.23;78.57;97855.60;106644;1267;59808;-40
2024/01/02 02:28:22;;;;;;;1.30;1.00;;;;;;;3.21;78.84;97851.80;106642;1269;59288;-40
2024/01/02 02:30:50;;;;;;;1.40;1.10;;;;;;;3.24;78.60;97852.34;107162;1257;71027;-39
2024/01/02 02:33:18;;;;;;;0.80;0.80;;;;;;;3.22;78.42;97847.97;107176;1257;66727;-40
2024/01/02 02:35:46;;;;;;;1.00;0.80;;;;;;;3.15;78.79;97842.01;107042;1260;72462;-40
2024/01/02 02:38:13;;;;;;;0.90;0.80;;;;;;;3.10;79.03;97841.44;107215;1257;153210;-40
2024/01/02 02:40:42;;;;;;;2.00;1.00;;;;;;;3.12;79.13;97839.48;107381;1254;59106;-38
2024/01/02 02:43:09;;;;;;;3.20;0.90;;;;;;;3.13;79.23;97843.41;107307;1254;72235;-38
2024/01/02 02:45:37;;;;;;;1.20;0.90;;;;;;;3.08;79.36;97837.70;107360;1254;66694;-39
2024/01/02 02:48:05;;;;;;;1.50;1.00;;;;;;;3.02;79.57;97841.39;107348;1254;71049;-39
2024/01/02 02:50:33;;;;;;;1.30;0.90;;;;;;;3.05;79.86;97840.85;107364;1257;59650;-39
2024/01/02 02:53:00;;;;;;;1.10;0.90;;;;;;;3.08;79.85;97842.40;107325;1254;59228;-39
2024/01/02 02:55:28;;;;;;;1.20;0.80;;;;;;;3.04;79.81;97840.77;107315;1254;73114;-39
2024/01/02 02:57:56;;;;;;;1.30;0.90;;;;;;;2.98;79.84;97828.86;107300;1254;66614;-38
2024/01/02 03:00:23;;;;;;;0.80;0.60;;;;;;;2.95;79.86;97828.31;107291;1257;72665;-39
2024/01/02 03:02:51;;;;;;;1.00;0.70;;;;;;;2.98;79.92;97835.58;107302;1254;59537;-39
2024/01/02 03:05:18;;;;;;;1.50;0.70;;;;;;;2.96;79.96;97834.31;107295;1254;59499;-39
2024/01/02 03:07:46;;;;;;;1.80;1.00;;;;;;;2.91;80.10;97832.95;107440;1254;73047;-39
2024/01/02 03:10:17;;;;;;;1.90;1.00;;;;;;;2.89;79.93;97837.65;107324;1254;65911;-39
2024/01/02 03:12:46;;;;;;;1.60;0.90;;;;;;;2.93;80.05;97828.96;107298;1257;72966;-39
2024/01/02 03:15:14;;;;;;;1.80;0.80;;;;;;;2.92;80.07;97838.10;107271;1258;59628;-39
2024/01/02 03:17:42;;;;;;;1.30;0.90;;;;;;;2.85;80.34;97842.08;107332;1254;59990;-39
2024/01/02 03:20:10;;;;;;;2.30;1.00;;;;;;;2.82;80.66;97836.11;107302;1254;71588;-39
2024/01/02 03:22:37;;;;;;;1.60;0.70;;;;;;;2.86;80.71;97846.83;107284;1254;66269;-39
2024/01/02 03:25:05;;;;;;;2.10;0.80;;;;;;;2.83;81.16;97845.14;107306;1257;72707;-39
2024/01/02 03:27:33;;;;;;;0.80;0.60;;;;;;;2.78;81.48;97849.08;107335;1254;59628;-39
2024/01/02 03:30:00;;;;;;;0.90;0.60;;;;;;;2.76;81.76;97854.76;107369;1254;59225;-39
2024/01/02 03:32:28;;;;;;;1.30;0.80;;;;;;;2.78;81.59;97853.80;107315;1255;71789;-39
2024/01/02 03:34:56;;;;;;;0.80;0.70;;;;;;;2.78;81.48;97849.85;107312;1256;67556;-39
2024/01/02 03:37:24;;;;;;;1.20;0.70;;;;;;;2.74;81.73;97851.42;107300;1257;72664;-39
2024/01/02 03:39:52;;;;;;;0.70;0.60;;;;;;;2.71;81.98;97855.48;107304;1256;59759;-39
2024/01/02 03:42:19;;;;;;;1.10;0.70;;;;;;;2.73;81.15;97854.75;107294;1255;59724;-39
2024/01/02 03:44:46;;;;;;;0.50;0.50;;;;;;;2.74;80.30;97852.19;107274;1256;73094;-39
2024/01/02 03:47:14;;;;;;;0.50;0.50;;;;;;;2.71;80.19;97856.52;107302;1256;68258;-39
2024/01/02 03:49:42;;;;;;;0.60;0.50;;;;;;;2.66;79.91;97857.09;107251;1256;71429;-39
2024/01/02 03:52:09;;;;;;;0.80;0.60;;;;;;;2.65;79.76;97854.48;107264;1257;60878;-39
2024/01/02 03:54:37;;;;;;;0.50;0.50;;;;;;;2.69;79.21;97856.09;107295;1256;59193;-39
2024/01/02 03:57:04;;;;;;;1.50;0.90;;;;;;;2.65;79.35;97854.93;105748;1257;1003698;-40
2024/01/02 03:59:32;;;;;;;0.60;0.60;;;;;;;2.59;79.47;97851.96;107254;1260;66850;-39
2024/01/02 04:02:00;;;;;;;1.80;0.60;;;;;;;2.55;79.46;97853.86;107249;1256;72674;-39
2024/01/02 04:04:27;;;;;;;1.10;0.60;;;;;;;2.57;79.75;97857.88;107348;1256;59592;-39
2024/01/02 04:06:55;;;;;;;0.40;0.40;;;;;;;2.53;79.98;97862.34;107303;1257;60161;-39
2024/01/02 04:09:22;;;;;;;0.90;0.50;;;;;;;2.46;80.24;97862.55;107394;1255;73025;-39
2024/01/02 04:11:50;;;;;;;0.90;0.70;;;;;;;2.42;80.61;97865.57;107278;1257;67885;-39
2024/01/02 04:14:18;;;;;;;1.00;0.70;;;;;;;2.42;80.26;97867.34;107266;1260;72687;-39
2024/01/02 04:16:45;;;;;;;0.80;0.50;;;;;;;2.38;80.52;97873.87;107265;1256;60012;-39
2024/01/02 04:19:14;;;;;;;0.50;0.50;;;;;;;2.31;80.77;97878.80;107298;1256;60019;-39
2024/01/02 04:21:42;;;;;;;0.90;0.50;;;;;;;2.28;81.28;97884.52;107234;1256;72996;-40
2024/01/02 04:24:09;;;;;;;0.50;0.50;;;;;;;2.30;81.54;97888.26;107366;1256;66734;-39
2024/01/02 04:26:37;;;;;;;0.80;0.50;;;;;;;2.27;81.64;97890.52;107327;1257;72449;-39
2024/01/02 04:29:04;;;;;;;0.70;0.50;;;;;;;2.18;81.79;97884.86;107315;1256;59531;-39
2024/01/02 04:31:32;;;;;;;1.70;0.70;;;;;;;2.14;82.03;97890.94;107325;1257;59528;-39
2024/01/02 04:33:59;;;;;;;0.90;0.60;;;;;;;2.16;81.83;97893.42;107256;1257;73037;-39
2024/01/02 04:36:27;;;;;;;1.10;0.70;;;;;;;2.13;81.73;97889.08;107276;1256;66639;-39
2024/01/02 04:38:55;;;;;;;0.60;0.50;;;;;;;2.07;81.74;97893.48;107356;1257;73278;-39
2024/01/02 04:41:23;;;;;;;0.90;0.60;;;;;;;2.05;81.77;97895.71;107337;1257;60818;-39
2024/01/02 04:43:51;;;;;;;0.80;0.50;;;;;;;2.08;81.62;97891.08;107391;1256;59480;-39
2024/01/02 04:46:18;;;;;;;0.60;0.60;;;;;;;2.05;81.64;97889.08;107359;1257;72333;-40
2024/01/02 04:48:46;;;;;;;0.80;0.50;;;;;;;2.00;81.31;97893.23;107367;1257;66333;-40
2024/01/02 04:51:13;;;;;;;0.80;0.60;;;;;;;2.00;81.30;97907.03;107351;1257;72534;-40
2024/01/02 04:53:41;;;;;;;0.70;0.60;;;;;;;2.02;80.62;97907.41;107332;1257;59738;-40
2024/01/02 04:56:08;;;;;;;0.50;0.50;;;;;;;2.00;80.43;97915.59;107245;1257;59557;-40
2024/01/02 04:58:36;;;;;;;0.60;0.50;;;;;;;1.95;80.65;97914.45;107212;1257;71797;-40
2024/01/02 05:01:03;;;;;;;0.50;0.50;;;;;;;1.94;80.71;97920.15;107354;1257;66593;-40
2024/01/02 05:03:31;;;;;;;1.90;0.50;;;;;;;1.96;80.51;97923.73;107257;1257;72295;-39
2024/01/02 05:05:59;;;;;;;0.40;0.40;;;;;;;1.96;80.60;97923.20;107398;1257;59454;-39
2024/01/02 05:08:26;;;;;;;1.10;0.70;;;;;;;1.92;80.64;97924.43;107339;1257;59557;-40
2024/01/02 05:10:54;;;;;;;0.80;0.60;;;;;;;1.88;80.59;97926.16;107316;1257;71800;-40
2024/01/02 05:13:22;;;;;;;0.70;0.60;;;;;;;1.92;80.41;97933.37;107350;1257;67550;-40
2024/01/02 05:15:50;;;;;;;0.40;0.40;;;;;;;1.94;80.22;97934.95;107291;1257;71440;-40
2024/01/02 05:18:19;;;;;;;0.50;0.50;;;;;;;1.91;80.45;97937.23;107277;1256;60094;-40
2024/01/02 05:20:47;;;;;;;0.60;0.40;;;;;;;1.86;80.36;97934.37;107351;1256;59297;-40
2024/01/02 05:23:15;;;;;;;0.60;0.60;;;;;;;1.91;80.01;97941.57;107349;1257;73075;-40
2024/01/02 05:25:43;;;;;;;0.40;0.40;;;;;;;1.95;79.86;97952.71;107329;1260;67550;-40
2024/01/02 05:28:11;;;;;;;0.40;0.40;;;;;;;1.93;79.83;97949.52;107350;1258;71348;-40
2024/01/02 05:30:38;;;;;;;0.40;0.40;;;;;;;1.88;79.81;97963.81;107330;1257;59660;-40
2024/01/02 05:33:06;;;;;;;0.60;0.50;;;;;;;1.89;79.64;97973.84;106567;1256;1003498;-40
2024/01/02 05:35:34;;;;;;;0.70;0.50;;;;;;;1.94;79.31;97971.23;107355;1257;71763;-40
2024/01/02 05:38:03;;;;;;;0.40;0.40;;;;;;;1.93;79.36;97981.73;107383;1257;66823;-40
2024/01/02 05:40:31;;;;;;;1.10;0.60;;;;;;;1.89;79.36;97987.17;107324;1257;72667;-40
2024/01/02 05:42:58;;;;;;;0.40;0.30;;;;;;;1.87;79.34;97993.86;107366;1257;60596;-40
2024/01/02 05:45:26;;;;;;;0.40;0.40;;;;;;;1.90;79.03;97996.02;107383;1257;59173;-40
2024/01/02 05:47:53;;;;;;;0.40;0.40;;;;;;;1.94;78.59;97999.17;107400;1257;71743;-40
2024/01/02 05:50:21;;;;;;;0.50;0.40;;;;;;;1.91;78.38;98009.47;107289;1256;66326;-40
2024/01/02 05:52:49;;;;;;;0.60;0.40;;;;;;;1.86;78.14;98013.80;105861;1256;1003718;-40
2024/01/02 05:55:16;;;;;;;0.50;0.40;;;;;;;1.82;77.48;98014.55;105866;1256;1003555;-40
2024/01/02 05:57:43;;;;;;;0.50;0.40;;;;;;;1.86;77.30;98018.61;107353;1260;60119;-40
2024/01/02 06:00:12;;;;;;;0.40;0.40;;;;;;;1.89;76.90;98021.15;107389;1257;72775;-40
2024/01/02 06:02:39;;;;;;;0.40;0.40;;;;;;;1.84;76.60;98026.95;107381;1257;67604;-40
2024/01/02 06:05:08;;;;;;;0.40;0.40;;;;;;;1.78;76.72;98025.02;107355;1257;71440;-40
2024/01/02 06:07:36;;;;;;;0.30;0.30;;;;;;;1.74;76.97;98028.95;107412;1257;61230;-40
2024/01/02 06:10:04;;;;;;;0.40;0.40;;;;;;;1.80;77.05;98032.12;107276;1256;60038;-40
2024/01/02 06:12:31;;;;;;;0.40;0.40;;;;;;;1.84;76.74;98040.17;107381;1257;71852;-40
2024/01/02 06:14:59;;;;;;;0.60;0.40;;;;;;;1.81;76.12;98037.23;105140;1260;1003177;-40
2024/01/02 06:17:26;;;;;;;0.50;0.50;;;;;;;1.77;75.97;98034.45;107365;1256;71994;-40
2024/01/02 06:19:54;;;;;;;0.60;0.50;;;;;;;1.73;75.76;98033.50;107334;1260;60499;-40
2024/01/02 06:22:22;;;;;;;0.40;0.30;;;;;;;1.76;75.52;98039.92;107367;1257;60039;-40
2024/01/02 06:24:49;;;;;;;0.30;0.30;;;;;;;1.79;75.57;98044.84;107388;1260;73046;-40
2024/01/02 06:27:17;;;;;;;0.40;0.40;;;;;;;1.76;75.79;98043.75;107370;1256;67730;-40
2024/01/02 06:29:44;;;;;;;0.60;0.40;;;;;;;1.73;75.60;98047.92;107350;1257;71399;-40
2024/01/02 06:32:16;;;;;;;0.50;0.50;;;;;;;1.70;75.74;98054.61;107355;1256;60191;-40
2024/01/02 06:34:43;;;;;;;0.30;0.30;;;;;;;1.72;75.78;98050.41;107257;1257;60286;-40
2024/01/02 06:37:11;;;;;;;0.50;0.50;;;;;;;1.75;75.50;98064.92;107320;1257;73889;-40
2024/01/02 06:39:39;;;;;;;0.80;0.50;;;;;;;1.71;75.77;98065.26;107368;1257;68063;-40
2024/01/02 06:42:06;;;;;;;0.30;0.30;;;;;;;1.66;75.88;98073.48;107327;1257;71380;-40
2024/01/02 06:44:33;;;;;;;0.70;0.50;;;;;;;1.65;76.24;98078.80;107309;1256;60880;-40
2024/01/02 06:47:01;;;;;;;0.80;0.60;;;;;;;1.71;76.44;98083.05;107288;1257;60447;-40
2024/01/02 06:49:29;;;;;;;0.40;0.40;;;;;;;1.71;76.47;98083.72;107226;1260;73671;-40
2024/01/02 06:51:57;;;;;;;0.40;0.40;;;;;;;1.66;76.79;98095.23;107393;1257;66447;-40
2024/01/02 06:54:24;;;;;;;0.50;0.50;;;;;;;1.61;76.81;98101.33;107238;1257;72678;-40
2024/01/02 06:56:52;;;;;;;1.50;0.60;;;;;;;1.61;76.78;98106.19;107224;1259;60524;-40
2024/01/02 06:59:19;;;;;;;1.10;0.80;;;;;;;1.63;76.52;98108.63;107367;1256;60574;-40
2024/01/02 07:01:47;;;;;;;0.70;0.60;;;;;;;1.59;76.52;98112.93;107329;1257;72552;-40
2024/01/02 07:04:14;;;;;;;1.80;0.60;;;;;;;1.54;76.87;98120.92;107331;1260;66384;-40
2024/01/02 07:06:41;;;;;;;0.50;0.50;;;;;;;1.47;76.92;98123.91;107337;1258;72701;-40
2024/01/02 07:09:09;;;;;;;1.20;0.80;;;;;;;1.49;77.07;98128.45;107298;1256;59592;-40
2024/01/02 07:11:36;;;;;;;0.80;0.70;;;;;;;1.53;76.74;98134.48;107239;1257;60377;-39
2024/01/02 07:14:04;;;;;;;0.70;0.70;;;;;;;1.52;76.62;98140.63;107313;1257;73805;-38
2024/01/02 07:16:32;;;;;;;0.90;0.70;;;;;;;1.49;75.81;98142.05;107382;1256;67655;-38
2024/01/02 07:18:59;;;;;;;0.70;0.60;;;;;;;1.46;75.49;98151.48;107360;1256;72449;-39
2024/01/02 07:21:27;;;;;;;0.80;0.60;;;;;;;1.42;74.94;98145.09;107353;1257;60885;-38
2024/01/02 07:23:55;;;;;;;0.60;0.60;;;;;;;1.46;74.58;98148.17;107359;1257;60607;-38
2024/01/02 07:26:22;;;;;;;0.90;0.70;;;;;;;1.48;74.41;98149.13;107269;1256;73798;-38
2024/01/02 07:28:50;;;;;;;0.70;0.70;;;;;;;1.45;74.05;98155.09;107357;1256;67796;-38
2024/01/02 07:31:18;;;;;;;1.10;0.60;;;;;;;1.38;73.82;98157.84;107223;1256;71781;-38
2024/01/02 07:33:46;;;;;;;0.60;0.60;;;;;;;1.29;73.73;98160.58;107318;1256;60520;-38
2024/01/02 07:36:18;;;;;;;1.00;0.60;;;;;;;1.26;73.47;98157.65;107327;1256;60501;-38
2024/01/02 07:38:45;;;;;;;1.00;0.90;;;;;;;1.31;73.45;98162.40;107357;1257;71595;-39
2024/01/02 07:41:14;;;;;;;1.10;0.80;;;;;;;1.29;72.86;98162.42;107349;1260;66764;-38
2024/01/02 07:43:41;;;;;;;0.70;0.70;;;;;;;1.22;72.72;98169.96;107259;1257;72442;-38
2024/01/02 07:46:09;;;;;;;1.20;0.80;;;;;;;1.16;72.71;98175.75;107310;1260;60474;-38
2024/01/02 07:48:36;;;;;;;0.60;0.60;;;;;;;1.10;72.60;98182.69;107229;1257;60065;-38
2024/01/02 07:51:04;;;;;;;1.10;0.90;;;;;;;1.07;72.46;98188.00;107240;1257;72585;-39
2024/01/02 07:53:32;;;;;;;1.90;1.20;;;;;;;1.05;72.48;98194.69;107248;1256;66762;-39
2024/01/02 07:56:02;;;;;;;1.10;0.90;;;;;;;0.96;72.16;98201.52;107252;1257;71387;-39
2024/01/02 07:58:30;;;;;;;1.10;1.00;;;;;;;0.83;71.30;98205.46;107242;1257;60441;-39
2024/01/02 08:00:58;;;;;;;1.30;1.00;;;;;;;0.68;70.79;98215.54;107253;1257;60424;-39
2024/01/02 08:03:26;;;;;;;1.20;1.00;;;;;;;0.59;71.41;98223.86;107236;1257;73809;-39
2024/01/02 08:05:54;;;;;;;1.30;1.00;;;;;;;0.60;71.74;98237.10;107226;1257;67539;-39
2024/01/02 08:08:24;;;;;;;1.80;1.00;;;;;;;0.56;70.81;98239.32;107266;1257;72690;-39
2024/01/02 08:10:51;;;;;;;1.40;1.10;;;;;;;0.49;70.17;98244.80;107258;1260;60459;-39
2024/01/02 08:13:18;;;;;;;1.60;1.20;;;;;;;0.40;69.58;98250.73;107274;1257;60431;-39
2024/01/02 08:15:46;;;;;;;1.20;1.10;;;;;;;0.33;69.91;98257.28;107258;1260;73029;-39
2024/01/02 08:18:13;;;;;;;1.20;1.10;;;;;;;0.26;69.97;98265.24;107233;1257;67035;-39
2024/01/02 08:20:42;;;;;;;2.20;1.30;;;;;;;0.27;70.03;98268.31;107237;1257;72655;-39
2024/01/02 08:23:09;;;;;;;2.40;1.90;;;;;;;0.29;69.82;98279.19;107240;1257;60347;-39
2024/01/02 08:25:39;;;;;;;2.30;1.40;;;;;;;0.26;69.77;98282.36;107227;1257;61013;-39
2024/01/02 08:28:06;;;;;;;3.30;2.90;;;;;;;0.21;69.67;98279.61;107245;1257;73850;-39
2024/01/02 08:30:34;;;;;;;4.80;3.40;;;;;;;0.17;70.14;98286.17;107303;1257;66780;-39
2024/01/02 08:33:03;;;;;;;4.60;3.10;;;;;;;0.15;70.25;98289.88;107292;1257;72661;-39
2024/01/02 08:35:33;;;;;;;6.10;4.10;;;;;;;0.16;69.73;98289.26;107285;1257;60531;-38
2024/01/02 08:38:01;;;;;;;5.40;4.10;;;;;;;0.19;69.54;98294.11;107232;1257;59579;-39
2024/01/02 08:40:29;;;;;;;3.10;1.90;;;;;;;0.16;69.52;98292.73;107217;1262;73061;-38
2024/01/02 08:42:56;;;;;;;2.10;1.70;;;;;;;0.12;69.49;98293.77;107273;1256;67699;-38
2024/01/02 08:45:25;;;;;;;3.20;2.10;;;;;;;0.09;69.79;98293.19;107235;1257;71325;-39
2024/01/02 08:47:52;;;;;;;1.90;1.70;;;;;;;0.03;69.69;98295.77;107259;1256;60558;-39
2024/01/02 08:50:20;;;;;;;5.00;3.60;;;;;;;-0.02;69.86;98296.12;107263;1257;60287;-39
2024/01/02 08:52:49;;;;;;;6.60;4.50;;;;;;;0.01;69.93;98304.60;107236;1257;73844;-39
2024/01/02 08:55:16;;;;;;;2.60;1.80;;;;;;;0.01;69.51;98309.69;107231;1257;67863;-39
2024/01/02 08:57:44;;;;;;;2.20;1.80;;;;;;;-0.04;69.49;98318.93;107198;1257;73149;-39
2024/01/02 09:00:14;;;;;;;3.20;2.50;;;;;;;-0.05;69.81;98325.96;107249;1263;59745;-39
2024/01/02 09:02:42;;;;;;;2.80;2.30;;;;;;;-0.11;69.04;98324.31;107205;1257;60431;-39
2024/01/02 09:05:10;;;;;;;2.60;2.00;;;;;;;-0.17;69.68;98333.02;107231;1257;72552;-39
2024/01/02 09:07:38;;;;;;;3.00;2.50;;;;;;;-0.15;70.17;98329.92;107191;1257;66311;-39
2024/01/02 09:10:06;;;;;;;2.70;2.10;;;;;;;-0.06;70.19;98328.34;107250;1257;71470;-39
2024/01/02 09:12:33;;;;;;;3.20;2.20;;;;;;;-0.02;70.23;98332.33;107242;1257;60556;-39
2024/01/02 09:15:01;;;;;;;2.70;2.10;;;;;;;-0.01;70.28;98335.88;107247;1257;60334;-39
2024/01/02 09:17:28;;;;;;;2.80;2.40;;;;;;;-0.03;70.12;98340.88;107256;1257;72610;-39
2024/01/02 09:19:56;;;;;;;3.00;2.20;;;;;;;-0.05;70.48;98346.11;107221;1257;67877;-39
2024/01/02 09:22:24;;;;;;;2.70;2.20;;;;;;;-0.09;70.48;98352.13;107208;1257;72645;-39
2024/01/02 09:24:52;;;;;;;4.50;2.20;;;;;;;-0.13;70.18;98350.34;107226;1262;60441;-39
2024/01/02 09:27:19;;;;;;;3.10;2.40;;;;;;;-0.11;70.35;98354.02;106491;1257;1003692;-38
2024/01/02 09:29:47;;;;;;;2.50;2.20;;;;;;;-0.03;70.77;98358.09;106495;1257;1002911;-38
2024/01/02 09:32:16;;;;;;;2.90;2.10;;;;;;;-0.03;70.53;98360.31;107247;1257;66963;-38
2024/01/02 09:34:44;;;;;;;2.50;2.00;;;;;;;-0.06;69.97;98357.44;107205;1257;73036;-39
2024/01/02 09:37:14;;;;;;;;;;;;;;;-0.12;69.83;98354.33;107300;1257;60434;-39
2024/01/02 09:39:43;;;;;;;3.00;2.10;;;;;;;-0.19;70.05;98354.85;107240;1257;60459;-39
2024/01/02 09:42:32;;;;;;;2.80;2.30;;;;;;;-0.24;70.47;98358.36;107263;1257;73780;-39
2024/01/02 09:45:24;;;;;;;2.30;2.00;;;;;;;-0.24;70.47;98364.08;107213;1257;66783;-39
2024/01/02 09:48:16;;;;;;;2.70;2.10;;;;;;;-0.19;69.50;98361.85;107222;1257;73101;-39
2024/01/02 09:51:07;;;;;;;2.60;2.00;;;;;;;-0.25;69.26;98367.74;107237;1257;60351;-38
2024/01/02 09:53:38;;;;;;;;;;;;;;;-0.37;69.46;98367.35;106509;1256;1003083;-39
2024/01/02 09:56:10;;;;;;;3.30;2.00;;;;;;;-0.47;69.78;98368.21;107250;1257;73858;-38
2024/01/02 09:59:17;;;;;;;4.80;2.50;;;;;;;-0.56;70.17;98371.02;107246;1261;65775;-39
2024/01/02 10:01:56;;;;;;;2.80;2.20;;;;;;;-0.59;70.19;98368.19;107080;1257;72710;-39
2024/01/02 10:04:42;;;;;;;5.00;2.40;;;;;;;-0.52;70.41;98362.00;107269;1257;60332;-39
2024/01/02 10:07:56;;;;;;;3.20;2.20;;;;;;;-0.49;70.02;98362.67;107284;1257;60456;-39
2024/01/02 10:10:36;;;;;;;3.70;2.40;;;;;;;-0.54;69.32;98361.33;106112;1263;1003118;-39
2024/01/02 10:13:13;;;;;;;5.20;2.40;;;;;;;-0.61;69.21;98359.45;107256;1257;67205;-39
2024/01/02 10:15:50;;;;;;;3.00;2.30;;;;;;;-0.65;69.47;98365.55;107273;1257;71401;-38
2024/01/02 10:18:24;;;;;;;4.00;2.60;;;;;;;-0.67;69.83;98369.27;107214;1256;60912;-39
2024/01/02 10:21:29;;;;;;;4.30;3.10;;;;;;;-0.60;69.68;98366.77;107330;1260;60329;-39
2024/01/02 10:24:15;;;;;;;2.80;2.40;;;;;;;-0.54;68.73;98366.84;107011;1258;73843;-39
2024/01/02 10:27:06;;;;;;;3.50;2.30;;;;;;;-0.59;68.64;98363.34;106483;1258;1003562;-39
2024/01/02 10:29:51;;;;;;;3.40;2.60;;;;;;;-0.61;68.90;98366.06;107239;1257;72294;-38
2024/01/02 10:32:50;;;;;;;3.50;2.40;;;;;;;-0.62;69.33;98360.07;107257;1260;60555;-39
2024/01/02 10:35:20;;;;;;;2.90;2.40;;;;;;;-0.64;68.72;98363.08;107304;1257;60545;-39
2024/01/02 10:38:10;;;;;;;2.50;2.10;;;;;;;-0.66;68.99;98361.03;107272;1256;74135;-39
2024/01/02 10:40:42;;;;;;;2.90;2.20;;;;;;;-0.59;68.76;98361.33;107205;1257;67540;-38
2024/01/02 10:43:30;;;;;;;3.50;2.30;;;;;;;-0.60;68.89;98359.92;107216;1261;74680;-39
2024/01/02 10:46:18;;;;;;;2.90;2.40;;;;;;;-0.61;69.37;98355.53;107286;1257;60425;-39
2024/01/02 10:48:55;;;;;;;5.00;2.50;;;;;;;-0.63;69.10;98352.79;107351;1257;60351;-39
2024/01/02 10:51:37;;;;;;;4.00;2.80;;;;;;;-0.65;69.69;98354.21;107252;1257;76068;-39
2024/01/02 10:54:09;;;;;;;3.20;2.50;;;;;;;-0.67;69.78;98355.58;107292;1257;68659;-39
2024/01/02 10:56:37;;;;;;;4.00;2.90;;;;;;;-0.61;70.14;98359.35;107241;1262;71399;-39
2024/01/02 10:59:12;;;;;;;5.20;3.30;;;;;;;-0.53;70.09;98361.41;107246;1256;60446;-39
2024/01/02 11:01:40;;;;;;;3.60;2.70;;;;;;;-0.49;70.09;98360.98;107269;1257;60396;-39
2024/01/02 11:04:16;;;;;;;4.10;2.80;;;;;;;-0.53;69.51;98361.84;107260;1257;74830;-40
2024/01/02 11:06:45;;;;;;;4.20;3.20;;;;;;;-0.62;69.54;98362.36;107231;1257;67885;-40
2024/01/02 11:09:55;;;;;;;4.40;3.30;;;;;;;-0.66;69.90;98367.33;107226;1261;72675;-40
2024/01/02 11:12:23;;;;;;;4.80;3.20;;;;;;;-0.68;70.10;98369.84;106902;1263;59432;-40
2024/01/02 11:14:51;;;;;;;4.30;3.20;;;;;;;-0.70;69.89;98372.86;107162;1262;60392;-40
2024/01/02 11:17:19;;;;;;;4.00;2.80;;;;;;;-0.66;69.77;98377.32;107249;1257;73859;-40
2024/01/02 11:19:53;;;;;;;4.20;2.70;;;;;;;-0.63;69.35;98379.02;107064;1263;67653;-40
2024/01/02 11:22:35;;;;;;;5.10;3.10;;;;;;;-0.67;69.45;98379.77;107267;1260;72763;-40
2024/01/02 11:25:04;;;;;;;5.90;3.10;;;;;;;-0.72;69.45;98382.47;107251;1262;61012;-40
2024/01/02 11:27:32;;;;;;;4.20;3.10;;;;;;;-0.78;69.37;98386.24;107295;1260;60457;-38
2024/01/02 11:30:02;;;;;;;4.40;3.00;;;;;;;-0.82;69.09;98383.83;107261;1257;73881;-38
2024/01/02 11:32:57;;;;;;;4.80;3.40;;;;;;;-0.87;69.16;98388.98;107108;1257;67531;-38
2024/01/02 11:35:26;;;;;;;5.00;2.80;;;;;;;-0.91;69.35;98387.91;107208;1258;74851;-39
2024/01/02 11:38:02;;;;;;;6.30;2.80;;;;;;;-0.86;69.17;98388.43;107075;1257;60883;-39
2024/01/02 11:40:35;;;;;;;4.30;2.70;;;;;;;-0.81;69.13;98395.05;107277;1257;60441;-39
2024/01/02 11:43:22;;;;;;;5.50;3.20;;;;;;;-0.84;69.13;98396.58;107223;1260;73816;-39
2024/01/02 11:45:57;;;;;;;5.20;3.20;;;;;;;-0.83;69.61;98399.75;107251;1257;67007;-39